• Join FlightAware (Why Join?)
  • Login
  • US Flag 
12:46AM EDT


 

Airport Tracker/Info


-or-


 

Live Flight TrackerFlight Track Log ✈ ASQ4577 ✈ 20-May-2013 ✈ KCLE - KALB

Flight Track Log - Related Links

Times and Time Zones

All times are in EDT time to prevent confusion due to time zone crossing. See the ASQ4577 flight status page for this flight to view local times or setup timezone preferences in your user account.

Time Position Orientation Groundspeed Altitude Reporting Facility
EDT Latitude Longitude Course Direction KTS MPH feet Rate Location/Type
07:56PM 41.3919 -81.8783 262° West 165 190 1,600  Level Cleveland Center
07:56PM 41.3872 -81.9253 262° West 198 228 2,900 1,980 Climbing Cleveland Center
07:57PM 41.4028 -82.0033 285° West 242 278 5,000 1,920 Climbing Cleveland Center
07:58PM 41.4278 -82.0203 333° Northwest 290 334 5,500 1,920 Climbing Cleveland Center
07:58PM 41.4650 -82.0489 330° Northwest 267 307 7,000 1,860 Climbing Cleveland Center
07:59PM 41.4964 -82.0386 14° North 290 334 7,400 1,920 Climbing Cleveland Center
08:00PM 41.5572 -81.9872 32° Northeast 303 349 9,600 1,860 Climbing Cleveland Center
08:01PM 41.6044 -81.8883 57° Northeast 298 343 11,200 1,380 Climbing Cleveland Center
08:02PM 41.6578 -81.7808 56° Northeast 329 379 12,400 1,140 Climbing Cleveland Center
08:03PM 41.7131 -81.6653 57° Northeast 354 407 13,500 1,020 Climbing Cleveland Center
08:04PM 41.7661 -81.5631 55° Northeast 368 423 14,500 1,080 Climbing Cleveland Center
08:05PM 41.8275 -81.4386 56° Northeast 381 438 15,700 1,200 Climbing Cleveland Center
08:06PM 41.8578 -81.2969 74° East 381 438 16,900 1,200 Climbing Cleveland Center
08:07PM 41.8814 -81.1492 78° East 394 453 18,100 1,200 Climbing Cleveland Center
08:08PM 41.9050 -80.9989 78° East 404 465 19,400 1,200 Climbing Cleveland Center
08:09PM 41.9306 -80.8372 78° East 410 472 20,600 1,080 Climbing Cleveland Center
08:10PM 41.9558 -80.6836 77° East 410 472 21,600 960 Climbing Cleveland Center
08:11PM 41.9808 -80.5272 78° East 416 479 22,600 1,020 Climbing Cleveland Center
08:12PM 42.0056 -80.3708 78° East 422 486 23,700 1,200 Climbing Cleveland Center
08:13PM 42.0281 -80.2169 79° East 422 486 25,100 1,380 Climbing Cleveland Center
08:14PM 42.0525 -80.0658 78° East 422 486 26,500 1,200 Climbing Cleveland Center
08:15PM 42.0728 -79.9258 79° East 422 486 27,500 960 Climbing Cleveland Center
08:16PM 42.0947 -79.7772 79° East 417 480 28,500 1,020 Climbing Cleveland Center
08:17PM 42.1164 -79.6231 79° East 412 474 29,600 1,020 Climbing Cleveland Center
08:18PM 42.1400 -79.4714 78° East 412 474 30,600 660 Climbing Cleveland Center
08:19PM 42.1614 -79.3114 80° East 419 482 31,000 180 Climbing Cleveland Center
08:20PM 42.1844 -79.1483 79° East 431 496 31,000  Level Cleveland Center
08:21PM 42.2053 -78.9797 80° East 443 510 31,000  Level Cleveland Center
08:22PM 42.2317 -78.7969 79° East 448 516 31,000  Level Cleveland Center
08:23PM 42.2539 -78.6278 80° East 448 516 31,000  Level Cleveland Center
08:24PM 42.2739 -78.4561 81° East 454 522 31,000  Level Cleveland Center
08:25PM 42.2936 -78.2869 81° East 454 522 31,000  Level Cleveland Center
08:26PM 42.3150 -78.1150 80° East 454 522 31,000  Level Cleveland Center
08:27PM 42.3342 -77.9456 81° East 454 522 31,000  Level Cleveland Center
08:28PM 42.3550 -77.7733 81° East 454 522 31,000 -360 Level Cleveland Center
08:29PM 42.3831 -77.5064 82° East 480 552 30,200 -720 Descending Boston Center
08:30PM 42.4050 -77.3392 80° East 480 552 29,200 -600 Descending Boston Center
08:31PM 42.4250 -77.1664 81° East 474 545 29,000 -120 Descending Boston Center
08:32PM 42.4444 -76.9933 81° East 462 532 29,000  Level Boston Center
08:33PM 42.4617 -76.8200 82° East 462 532 29,000  Level Boston Center
08:34PM 42.4808 -76.6467 81° East 462 532 29,000  Level Boston Center
08:35PM 42.4997 -76.4706 82° East 467 537 29,000  Level Boston Center
08:36PM 42.5183 -76.2969 82° East 462 532 29,000  Level Boston Center
08:37PM 42.5367 -76.1233 82° East 462 532 29,000  Level Boston Center
08:38PM 42.5547 -75.9494 82° East 462 532 29,000  Level Boston Center
08:39PM 42.5703 -75.7728 83° East 462 532 29,000 -840 Level Boston Center
08:40PM 42.5878 -75.6017 82° East 462 532 27,200 -2,220 Descending Boston Center
08:41PM 42.6056 -75.4106 83° East 467 537 24,200 -2,700 Descending Boston Center
08:42PM 42.6203 -75.2364 83° East 467 537 21,800 -2,520 Descending Boston Center
08:43PM 42.6367 -75.0733 82° East 455 524 19,200 -2,520 Descending Boston Center
08:44PM 42.6528 -74.9158 82° East 432 497 16,800 -2,400 Descending Boston Center
08:45PM 42.6642 -74.7694 84° East 414 476 14,800 -2,280 Descending Boston Center
08:46PM 42.6800 -74.6036 83° East 412 474 12,600 -1,860 Descending Boston Center
08:47PM 42.6911 -74.4486 84° East 379 436 10,900 -1,500 Descending Boston Center
08:48PM 42.7036 -74.3217 82° East 341 392 9,500 -1,500 Descending Boston Center
08:50PM 42.7097 -74.2006 86° East 282 325 7,800 -1,620 Descending Boston Center
08:51PM 42.7072 -74.0958 92° East 275 316 6,100 -1,620 Descending Boston Center
08:51PM 42.7042 -74.0167 93° East 272 313 4,800 -1,440 Descending Boston Center
08:52PM 42.6867 -73.9200 104° East 267 307 3,400 -1,200 Descending Boston Center
08:53PM 42.6689 -73.8519 110° East 233 268 2,500 -1,020 Descending Boston Center
08:54PM 42.6922 -73.8072 55° Northeast 142 163 1,400 -1,080 Descending Boston Center
08:55PM 42.7319 -73.8081 359° North 148 170 500 -1,020 Descending Boston Center